createdAt,value
2023-02-05T00:00:31.927Z,98280.69
2023-02-05T00:03:20.105Z,98286.83
2023-02-05T00:05:48.470Z,98290.69
2023-02-05T00:08:16.793Z,98293.17
2023-02-05T00:10:51.332Z,98300.23
2023-02-05T00:13:19.872Z,98302.93
2023-02-05T00:15:48.251Z,98302.41
2023-02-05T00:18:16.674Z,98305.59
2023-02-05T00:20:45.208Z,98313.33
2023-02-05T00:23:13.818Z,98315.21
2023-02-05T00:25:42.521Z,98314.48
2023-02-05T00:28:10.890Z,98316.60
2023-02-05T00:30:41.691Z,98320.05
2023-02-05T00:33:10.280Z,98322.42
2023-02-05T00:35:38.665Z,98316.70
2023-02-05T00:38:06.839Z,98323.70
2023-02-05T00:40:35.291Z,98327.83
2023-02-05T00:43:03.731Z,98328.76
2023-02-05T00:45:35.826Z,98333.13
2023-02-05T00:48:05.852Z,98335.33
2023-02-05T00:50:35.019Z,98334.32
2023-02-05T00:53:02.944Z,98337.52
2023-02-05T00:55:31.574Z,98336.05
2023-02-05T00:58:01.445Z,98337.41
2023-02-05T01:00:29.910Z,98339.17
2023-02-05T01:02:58.085Z,98339.58
2023-02-05T01:05:31.506Z,98341.55
2023-02-05T01:07:59.834Z,98342.60
2023-02-05T01:10:28.094Z,98339.35
2023-02-05T01:12:56.904Z,98337.89
2023-02-05T01:15:25.943Z,98340.71
2023-02-05T01:17:54.245Z,98347.23
2023-02-05T01:20:22.499Z,98353.68
2023-02-05T01:22:50.657Z,98355.91
2023-02-05T01:25:19.383Z,98355.25
2023-02-05T01:27:47.978Z,98352.31
2023-02-05T01:30:16.405Z,98358.85
2023-02-05T01:32:44.589Z,98357.27
2023-02-05T01:35:12.845Z,98359.54
2023-02-05T01:37:41.147Z,98363.92
2023-02-05T01:40:15.258Z,98362.06
2023-02-05T01:42:44.095Z,98359.77
2023-02-05T01:45:22.112Z,98360.36
2023-02-05T01:48:03.015Z,98362.55
2023-02-05T01:50:31.369Z,98363.23
2023-02-05T01:53:06.168Z,98366.94
2023-02-05T01:55:38.930Z,98369.84
2023-02-05T01:58:07.436Z,98366.32
2023-02-05T02:00:35.706Z,98365.34
2023-02-05T02:03:04.627Z,98366.13
2023-02-05T02:05:33.378Z,98362.64
2023-02-05T02:08:02.803Z,98368.52
2023-02-05T02:10:32.118Z,98369.30
2023-02-05T02:13:01.621Z,98370.17
2023-02-05T02:15:30.578Z,98373.98
2023-02-05T02:18:22.460Z,98377.57
2023-02-05T02:21:05.553Z,98375.88
2023-02-05T02:24:11.280Z,98374.95
2023-02-05T02:27:00.884Z,98380.34
2023-02-05T02:29:52.842Z,98385.66
2023-02-05T02:32:42.972Z,98391.38
2023-02-05T02:35:16.228Z,98393.05
2023-02-05T02:37:57.020Z,98395.46
2023-02-05T02:40:50.110Z,98396.48
2023-02-05T02:43:19.501Z,98394.98
2023-02-05T02:46:00.841Z,98396.06
2023-02-05T02:48:33.643Z,98396.55
2023-02-05T02:51:05.466Z,98404.05
2023-02-05T02:53:38.754Z,98406.53
2023-02-05T02:56:11.280Z,98410.56
2023-02-05T02:58:50.070Z,98415.63
2023-02-05T03:01:22.790Z,98412.92
2023-02-05T03:04:03.464Z,98416.52
2023-02-05T03:06:33.835Z,98417.94
2023-02-05T03:09:32.301Z,98424.82
2023-02-05T03:12:00.899Z,98424.75
2023-02-05T03:14:30.852Z,98427.49
2023-02-05T03:17:00.069Z,98431.35
2023-02-05T03:19:29.462Z,98433.42
2023-02-05T03:22:02.889Z,98441.70
2023-02-05T03:24:32.398Z,98439.80
2023-02-05T03:27:01.106Z,98443.92
2023-02-05T03:29:35.633Z,98445.83
2023-02-05T03:32:13.231Z,98450.22
2023-02-05T03:34:55.183Z,98451.15
2023-02-05T03:38:08.501Z,98456.83
2023-02-05T03:40:51.317Z,98459.81
2023-02-05T03:43:30.606Z,98461.64
2023-02-05T03:46:11.730Z,98468.73
2023-02-05T03:49:02.980Z,98475.03
2023-02-05T03:51:41.267Z,98472.77
2023-02-05T03:54:29.507Z,98474.35
2023-02-05T03:57:06.023Z,98476.52
2023-02-05T03:59:38.700Z,98477.48
2023-02-05T04:02:07.553Z,98480.23
2023-02-05T04:04:39.399Z,98486.06
2023-02-05T04:07:08.813Z,98485.55
2023-02-05T04:09:37.951Z,98488.19
2023-02-05T04:12:07.263Z,98490.45
2023-02-05T04:14:35.761Z,98492.57
2023-02-05T04:17:04.684Z,98492.94
2023-02-05T04:19:32.861Z,98495.58
2023-02-05T04:22:02.159Z,98495.73
2023-02-05T04:24:32.158Z,98498.77
2023-02-05T04:27:00.699Z,98495.98
2023-02-05T04:29:28.912Z,98495.19
2023-02-05T04:31:59.094Z,98498.30
2023-02-05T04:34:27.535Z,98499.23
2023-02-05T04:36:56.625Z,98499.61
2023-02-05T04:39:26.804Z,98506.27
2023-02-05T04:41:55.271Z,98503.26
2023-02-05T04:44:23.918Z,98514.15
2023-02-05T04:46:52.226Z,98521.05
2023-02-05T04:49:20.813Z,98520.86
2023-02-05T04:51:49.197Z,98520.92
2023-02-05T04:54:17.950Z,98522.91
2023-02-05T04:56:47.091Z,98528.27
2023-02-05T04:59:15.728Z,98533.05
2023-02-05T05:01:43.892Z,98531.31
2023-02-05T05:04:12.601Z,98533.98
2023-02-05T05:06:41.347Z,98540.72
2023-02-05T05:09:09.841Z,98541.23
2023-02-05T05:11:39.891Z,98534.46
2023-02-05T05:14:08.520Z,98535.39
2023-02-05T05:16:36.915Z,98539.30
2023-02-05T05:19:05.644Z,98547.70
2023-02-05T05:21:33.927Z,98550.23
2023-02-05T05:24:02.051Z,98553.25
2023-02-05T05:26:30.888Z,98556.05
2023-02-05T05:28:59.539Z,98553.42
2023-02-05T05:31:28.021Z,98552.52
2023-02-05T05:33:56.029Z,98555.05
2023-02-05T05:36:24.389Z,98559.20
2023-02-05T05:38:52.914Z,98561.33
2023-02-05T05:41:43.411Z,98566.21
2023-02-05T05:44:11.985Z,98569.35
2023-02-05T05:46:41.038Z,98570.27
2023-02-05T05:49:09.534Z,98576.47
2023-02-05T05:51:37.868Z,98585.85
2023-02-05T05:54:05.964Z,98591.20
2023-02-05T05:56:35.927Z,98590.71
2023-02-05T05:59:04.642Z,98597.11
2023-02-05T06:01:33.245Z,98600.69
2023-02-05T06:04:03.952Z,98606.42
2023-02-05T06:06:33.380Z,98610.41
2023-02-05T06:09:02.286Z,98613.17
2023-02-05T06:11:30.474Z,98616.89
2023-02-05T06:13:58.967Z,98623.20
2023-02-05T06:16:27.578Z,98622.08
2023-02-05T06:18:56.481Z,98623.05
2023-02-05T06:21:24.628Z,98626.55
2023-02-05T06:23:52.897Z,98630.44
2023-02-05T06:26:21.136Z,98630.89
2023-02-05T06:28:49.337Z,98640.54
2023-02-05T06:31:20.339Z,98641.91
2023-02-05T06:33:48.478Z,98641.75
2023-02-05T06:36:16.781Z,98644.64
2023-02-05T06:38:45.516Z,98649.40
2023-02-05T06:41:14.261Z,98649.44
2023-02-05T06:43:43.337Z,98651.97
2023-02-05T06:46:12.295Z,98651.95
2023-02-05T06:48:40.963Z,98655.96
2023-02-05T06:51:10.027Z,98659.50
2023-02-05T06:53:38.626Z,98661.62
2023-02-05T06:56:07.212Z,98662.95
2023-02-05T06:58:35.676Z,98664.58
2023-02-05T07:01:04.124Z,98665.67
2023-02-05T07:03:33.642Z,98669.42
2023-02-05T07:06:04.287Z,98672.09
2023-02-05T07:08:34.188Z,98674.46
2023-02-05T07:11:03.318Z,98674.14
2023-02-05T07:13:32.482Z,98676.24
2023-02-05T07:16:04.396Z,98672.67
2023-02-05T07:18:34.352Z,98674.97
2023-02-05T07:21:11.168Z,98675.73
2023-02-05T07:23:41.007Z,98672.70
2023-02-05T07:26:11.981Z,98671.35
2023-02-05T07:28:41.476Z,98669.77
2023-02-05T07:31:15.499Z,98674.82
2023-02-05T07:33:45.132Z,98680.74
2023-02-05T07:36:16.849Z,98685.30
2023-02-05T07:38:47.377Z,98690.92
2023-02-05T07:41:17.925Z,98692.27
2023-02-05T07:43:47.515Z,98690.67
2023-02-05T07:46:16.966Z,98694.60
2023-02-05T07:48:46.395Z,98692.80
2023-02-05T07:51:21.078Z,98695.79
2023-02-05T07:53:51.510Z,98698.94
2023-02-05T07:56:22.742Z,98698.52
2023-02-05T07:58:51.606Z,98702.98
2023-02-05T08:01:20.208Z,98706.39
2023-02-05T08:03:49.033Z,98699.69
2023-02-05T08:06:17.526Z,98700.08
2023-02-05T08:08:45.579Z,98704.54
2023-02-05T08:11:16.356Z,98701.77
2023-02-05T08:13:46.018Z,98699.57
2023-02-05T08:16:18.245Z,98691.89
2023-02-05T08:18:51.083Z,98689.92
2023-02-05T08:21:22.189Z,98684.91
2023-02-05T08:23:51.161Z,98689.52
2023-02-05T08:26:19.842Z,98693.17
2023-02-05T08:28:48.640Z,98693.08
2023-02-05T08:31:19.808Z,98693.67
2023-02-05T08:33:51.088Z,98699.04
2023-02-05T08:36:19.248Z,98697.48
2023-02-05T08:38:47.920Z,98704.50
2023-02-05T08:41:16.396Z,98711.34
2023-02-05T08:43:47.248Z,98717.17
2023-02-05T08:46:19.532Z,98718.91
2023-02-05T08:48:49.301Z,98724.63
2023-02-05T08:51:19.558Z,98726.14
2023-02-05T08:53:48.863Z,98729.13
2023-02-05T08:56:19.947Z,98737.73
2023-02-05T08:58:49.355Z,98745.84
2023-02-05T09:01:18.906Z,98743.84
2023-02-05T09:03:47.270Z,98742.02
2023-02-05T09:06:16.654Z,98739.81
2023-02-05T09:08:45.121Z,98739.43
2023-02-05T09:11:13.755Z,98740.86
2023-02-05T09:13:42.796Z,98741.45
2023-02-05T09:16:11.757Z,98736.45
2023-02-05T09:18:40.860Z,98730.38
2023-02-05T09:21:10.645Z,98723.83
2023-02-05T09:23:40.318Z,98717.50
2023-02-05T09:26:09.621Z,98722.52
2023-02-05T09:28:38.714Z,98723.19
2023-02-05T09:31:11.923Z,98717.91
2023-02-05T09:33:40.783Z,98714.39
2023-02-05T09:36:13.277Z,98717.91
2023-02-05T09:38:41.946Z,98715.06
2023-02-05T09:41:13.124Z,98716.54
2023-02-05T09:44:12.226Z,98718.86
2023-02-05T09:47:06.482Z,98716.59
2023-02-05T09:50:02.692Z,98715.64
2023-02-05T09:52:33.499Z,98706.75
2023-02-05T09:55:04.541Z,98705.01
2023-02-05T09:57:39.797Z,98706.41
2023-02-05T10:00:28.709Z,98705.89
2023-02-05T10:03:12.421Z,98708.55
2023-02-05T10:06:18.323Z,98716.98
2023-02-05T10:08:57.998Z,98709.58
2023-02-05T10:11:43.334Z,98709.77
2023-02-05T10:14:14.420Z,98705.47
2023-02-05T10:16:51.589Z,98701.55
2023-02-05T10:19:44.838Z,98709.54
2023-02-05T10:22:21.698Z,98706.20
2023-02-05T10:25:08.855Z,98701.95
2023-02-05T10:28:22.550Z,98699.95
2023-02-05T10:31:08.244Z,98705.56
2023-02-05T10:33:57.089Z,98705.71
2023-02-05T10:36:27.654Z,98698.89
2023-02-05T10:38:57.838Z,98698.01
2023-02-05T10:41:39.926Z,98693.88
2023-02-05T10:44:34.046Z,98691.27
2023-02-05T10:47:37.221Z,98693.11
2023-02-05T10:50:23.877Z,98700.47
2023-02-05T10:52:52.161Z,98702.35
2023-02-05T10:55:20.294Z,98701.33
2023-02-05T10:57:49.038Z,98700.66
2023-02-05T11:00:21.214Z,98695.91
2023-02-05T11:02:52.697Z,98693.75
2023-02-05T11:05:41.919Z,98692.75
2023-02-05T11:08:42.688Z,98685.16
2023-02-05T11:11:29.516Z,98678.40
2023-02-05T11:14:02.081Z,98682.27
2023-02-05T11:16:44.265Z,98676.96
2023-02-05T11:19:24.107Z,98681.05
2023-02-05T11:21:57.098Z,98679.86
2023-02-05T11:24:39.959Z,98675.89
2023-02-05T11:27:30.440Z,98674.40
2023-02-05T11:30:51.805Z,98671.00
2023-02-05T11:33:20.321Z,98678.07
2023-02-05T11:36:00.007Z,98678.70
2023-02-05T11:38:46.172Z,98667.83
2023-02-05T11:41:30.177Z,98669.87
2023-02-05T11:44:03.733Z,98662.80
2023-02-05T11:46:38.071Z,98660.40
2023-02-05T11:49:06.688Z,98656.21
2023-02-05T11:51:35.314Z,98658.08
2023-02-05T11:54:27.464Z,98665.28
2023-02-05T11:57:14.176Z,98656.15
2023-02-05T11:59:45.132Z,98645.20
2023-02-05T12:02:29.468Z,98651.06
2023-02-05T12:05:07.924Z,98648.21
2023-02-05T12:08:03.032Z,98645.66
2023-02-05T12:10:50.556Z,98646.58
2023-02-05T12:13:45.678Z,98636.86
2023-02-05T12:16:26.639Z,98641.58
2023-02-05T12:19:07.968Z,98640.43
2023-02-05T12:21:51.792Z,98647.51
2023-02-05T12:24:41.383Z,98647.55
2023-02-05T12:27:34.632Z,98649.36
2023-02-05T12:30:40.283Z,98651.60
2023-02-05T12:33:47.007Z,98646.65
2023-02-05T12:37:09.863Z,98646.13
2023-02-05T12:40:19.920Z,98645.40
2023-02-05T12:43:06.836Z,98638.51
2023-02-05T12:45:45.666Z,98645.58
2023-02-05T12:48:26.551Z,98650.74
2023-02-05T12:51:10.341Z,98654.83
2023-02-05T12:53:59.775Z,98644.34
2023-02-05T12:56:54.190Z,98644.14
2023-02-05T12:59:36.902Z,98638.11
2023-02-05T13:02:24.583Z,98657.86
2023-02-05T13:05:14.531Z,98658.60
2023-02-05T13:07:47.145Z,98650.14
2023-02-05T13:10:24.501Z,98653.39
2023-02-05T13:12:59.741Z,98652.55
2023-02-05T13:15:35.593Z,98653.86
2023-02-05T13:18:17.308Z,98658.67
2023-02-05T13:21:12.620Z,98657.14
2023-02-05T13:24:01.933Z,98660.23
2023-02-05T13:27:00.351Z,98661.23
2023-02-05T13:29:33.736Z,98655.89
2023-02-05T13:32:16.827Z,98658.69
2023-02-05T13:34:45.312Z,98654.29
2023-02-05T13:37:53.054Z,98658.84
2023-02-05T13:40:44.225Z,98664.21
2023-02-05T13:43:27.716Z,98664.17
2023-02-05T13:46:37.750Z,98667.25
2023-02-05T13:49:34.693Z,98674.55
2023-02-05T13:52:27.895Z,98674.15
2023-02-05T13:55:18.680Z,98669.42
2023-02-05T13:58:02.382Z,98672.92
2023-02-05T14:00:31.738Z,98671.10
2023-02-05T14:03:05.829Z,98673.86
2023-02-05T14:05:41.467Z,98673.79
2023-02-05T14:08:26.778Z,98679.27
2023-02-05T14:11:03.728Z,98680.48
2023-02-05T14:13:34.425Z,98670.48
2023-02-05T14:16:24.489Z,98670.89
2023-02-05T14:19:01.917Z,98676.86
2023-02-05T14:21:30.280Z,98677.58
2023-02-05T14:24:23.046Z,98678.88
2023-02-05T14:26:57.740Z,98677.15
2023-02-05T14:29:44.853Z,98676.67
2023-02-05T14:32:42.886Z,98677.20
2023-02-05T14:35:10.941Z,98684.90
2023-02-05T14:37:42.763Z,98682.64
2023-02-05T14:40:37.753Z,98684.45
2023-02-05T14:43:23.548Z,98684.46
2023-02-05T14:45:53.751Z,98677.02
2023-02-05T14:48:27.854Z,98683.85
2023-02-05T14:51:40.852Z,98686.22
2023-02-05T14:54:15.168Z,98683.31
2023-02-05T14:57:10.693Z,98686.73
2023-02-05T14:59:52.314Z,98688.75
2023-02-05T15:02:48.686Z,98697.85
2023-02-05T15:05:30.297Z,98696.83
2023-02-05T15:08:18.008Z,98699.06
2023-02-05T15:10:54.867Z,98701.80
2023-02-05T15:13:25.175Z,98699.20
2023-02-05T15:16:12.158Z,98701.23
2023-02-05T15:18:45.406Z,98702.45
2023-02-05T15:21:16.442Z,98707.46
2023-02-05T15:23:47.278Z,98705.77
2023-02-05T15:26:24.599Z,98713.30
2023-02-05T15:28:59.992Z,98715.02
2023-02-05T15:31:51.262Z,98715.50
2023-02-05T15:34:38.056Z,98710.02
2023-02-05T15:37:09.294Z,98712.58
2023-02-05T15:39:51.190Z,98709.20
2023-02-05T15:42:41.176Z,98706.11
2023-02-05T15:45:27.112Z,98712.22
2023-02-05T15:48:10.390Z,98716.03
2023-02-05T15:50:54.542Z,98716.91
2023-02-05T15:53:43.313Z,98718.05
2023-02-05T15:56:18.810Z,98724.63
2023-02-05T15:59:00.434Z,98726.53
2023-02-05T16:01:30.470Z,98726.06
2023-02-05T16:03:59.022Z,98725.58
2023-02-05T16:06:29.691Z,98732.05
2023-02-05T16:08:58.006Z,98734.73
2023-02-05T16:11:32.263Z,98738.73
2023-02-05T16:14:05.767Z,98743.50
2023-02-05T16:16:39.877Z,98746.64
2023-02-05T16:19:15.899Z,98747.20
2023-02-05T16:21:51.888Z,98750.27
2023-02-05T16:24:33.748Z,98754.85
2023-02-05T16:27:28.318Z,98760.06
2023-02-05T16:29:59.684Z,98761.42
2023-02-05T16:32:36.597Z,98766.10
2023-02-05T16:35:08.545Z,98769.19
2023-02-05T16:37:36.872Z,98772.16
2023-02-05T16:40:07.767Z,98779.40
2023-02-05T16:42:43.347Z,98778.33
2023-02-05T16:45:19.676Z,98780.86
2023-02-05T16:48:25.544Z,98784.65
2023-02-05T16:50:54.816Z,98783.94
2023-02-05T16:53:26.709Z,98787.94
2023-02-05T16:56:13.272Z,98792.23
2023-02-05T16:58:51.921Z,98794.37
2023-02-05T17:01:37.531Z,98800.79
2023-02-05T17:04:06.704Z,98801.79
2023-02-05T17:06:37.761Z,98802.52
2023-02-05T17:09:06.608Z,98804.80
2023-02-05T17:11:38.574Z,98806.83
2023-02-05T17:14:33.296Z,98810.46
2023-02-05T17:17:07.726Z,98812.04
2023-02-05T17:19:39.373Z,98814.56
2023-02-05T17:22:13.778Z,98815.67
2023-02-05T17:24:51.913Z,98811.99
2023-02-05T17:27:30.838Z,98806.62
2023-02-05T17:30:00.220Z,98808.05
2023-02-05T17:32:30.392Z,98809.36
2023-02-05T17:35:00.028Z,98811.52
2023-02-05T17:37:28.338Z,98810.55
2023-02-05T17:39:58.049Z,98811.40
2023-02-05T17:42:27.206Z,98814.02
2023-02-05T17:44:56.396Z,98815.21
2023-02-05T17:47:24.511Z,98818.99
2023-02-05T17:49:52.671Z,98816.75
2023-02-05T17:52:20.921Z,98816.77
2023-02-05T17:54:48.979Z,98815.56
2023-02-05T17:57:20.175Z,98812.44
2023-02-05T17:59:49.529Z,98811.23
2023-02-05T18:02:18.309Z,98819.46
2023-02-05T18:04:47.154Z,98821.95
2023-02-05T18:07:33.163Z,98819.21
2023-02-05T18:10:03.751Z,98818.66
2023-02-05T18:12:33.636Z,98815.33
2023-02-05T18:15:02.178Z,98819.81
2023-02-05T18:17:30.453Z,98820.66
2023-02-05T18:19:58.692Z,98821.15
2023-02-05T18:22:26.998Z,98821.98
2023-02-05T18:24:54.949Z,98820.64
2023-02-05T18:27:23.380Z,98826.23
2023-02-05T18:29:51.944Z,98827.48
2023-02-05T18:32:20.058Z,98827.48
2023-02-05T18:34:48.438Z,98831.04
2023-02-05T18:37:17.043Z,98830.79
2023-02-05T18:39:45.924Z,98829.13
2023-02-05T18:42:14.819Z,98837.89
2023-02-05T18:44:43.358Z,98835.31
2023-02-05T18:47:13.095Z,98832.88
2023-02-05T18:49:42.983Z,98829.05
2023-02-05T18:52:12.162Z,98826.66
2023-02-05T18:54:40.966Z,98826.58
2023-02-05T18:57:09.048Z,98836.14
2023-02-05T18:59:38.280Z,98839.71
2023-02-05T19:02:09.910Z,98841.02
2023-02-05T19:04:39.074Z,98846.19
2023-02-05T19:07:08.554Z,98856.02
2023-02-05T19:09:36.691Z,98856.63
2023-02-05T19:12:05.088Z,98860.91
2023-02-05T19:14:33.720Z,98861.25
2023-02-05T19:17:01.890Z,98867.27
2023-02-05T19:19:31.523Z,98865.98
2023-02-05T19:22:02.102Z,98863.55
2023-02-05T19:24:31.611Z,98868.12
2023-02-05T19:27:00.214Z,98872.84
2023-02-05T19:29:28.901Z,98872.55
2023-02-05T19:31:58.889Z,98875.66
2023-02-05T19:34:28.072Z,98879.16
2023-02-05T19:36:56.314Z,98880.88
2023-02-05T19:39:24.493Z,98885.00
2023-02-05T19:41:53.060Z,98883.70
2023-02-05T19:44:22.136Z,98885.72
2023-02-05T19:46:51.161Z,98889.94
2023-02-05T19:49:21.743Z,98890.59
2023-02-05T19:51:54.492Z,98886.59
2023-02-05T19:54:23.530Z,98882.17
2023-02-05T19:56:52.061Z,98888.70
2023-02-05T19:59:21.316Z,98889.77
2023-02-05T20:01:50.024Z,98891.10
2023-02-05T20:04:22.512Z,98886.83
2023-02-05T20:06:55.695Z,98885.72
2023-02-05T20:09:24.378Z,98888.27
2023-02-05T20:11:53.480Z,98889.83
2023-02-05T20:14:22.295Z,98892.79
2023-02-05T20:16:52.181Z,98897.39
2023-02-05T20:19:21.366Z,98896.09
2023-02-05T20:21:49.905Z,98904.67
2023-02-05T20:24:18.131Z,98913.30
2023-02-05T20:26:50.220Z,98911.54
2023-02-05T20:29:36.911Z,98917.59
2023-02-05T20:32:05.835Z,98918.50
2023-02-05T20:34:36.129Z,98920.52
2023-02-05T20:37:07.503Z,98923.36
2023-02-05T20:39:44.605Z,98934.04
2023-02-05T20:42:17.338Z,98941.17
2023-02-05T20:44:45.518Z,98943.45
2023-02-05T20:47:15.125Z,98943.52
2023-02-05T20:49:43.464Z,98945.31
2023-02-05T20:52:12.162Z,98947.00
2023-02-05T20:54:40.389Z,98942.84
2023-02-05T20:57:09.617Z,98942.37
2023-02-05T20:59:38.776Z,98942.30
2023-02-05T21:02:07.121Z,98945.34
2023-02-05T21:04:36.629Z,98946.38
2023-02-05T21:07:05.387Z,98948.11
2023-02-05T21:09:34.831Z,98950.24
2023-02-05T21:12:03.607Z,98956.55
2023-02-05T21:14:32.246Z,98959.08
2023-02-05T21:17:00.524Z,98959.63
2023-02-05T21:19:28.834Z,98955.30
2023-02-05T21:21:58.301Z,98955.95
2023-02-05T21:24:26.990Z,98956.77
2023-02-05T21:26:55.472Z,98961.48
2023-02-05T21:29:23.761Z,98962.41
2023-02-05T21:31:55.767Z,98961.54
2023-02-05T21:34:27.777Z,98965.85
2023-02-05T21:36:56.753Z,98966.73
2023-02-05T21:39:25.775Z,98967.56
2023-02-05T21:41:54.513Z,98970.52
2023-02-05T21:44:24.370Z,98969.09
2023-02-05T21:46:55.420Z,98972.69
2023-02-05T21:49:24.567Z,98983.64
2023-02-05T21:51:53.583Z,98982.02
2023-02-05T21:54:25.808Z,98983.64
2023-02-05T21:56:54.964Z,98995.30
2023-02-05T21:59:24.129Z,98998.17
2023-02-05T22:01:52.496Z,99000.26
2023-02-05T22:04:21.001Z,99002.39
2023-02-05T22:06:50.953Z,99001.59
2023-02-05T22:09:19.400Z,99001.59
2023-02-05T22:11:49.542Z,99002.45
2023-02-05T22:14:18.330Z,99000.81
2023-02-05T22:16:46.444Z,99002.46
2023-02-05T22:19:14.716Z,99007.19
2023-02-05T22:21:43.812Z,99006.26
2023-02-05T22:24:17.068Z,99006.64
2023-02-05T22:26:46.840Z,99011.86
2023-02-05T22:29:19.188Z,99014.46
2023-02-05T22:31:57.087Z,99016.88
2023-02-05T22:34:25.435Z,99012.70
2023-02-05T22:36:53.703Z,99012.84
2023-02-05T22:39:22.309Z,99016.66
2023-02-05T22:41:50.586Z,99019.83
2023-02-05T22:44:18.850Z,99023.05
2023-02-05T22:46:47.318Z,99023.95
2023-02-05T22:49:15.785Z,99021.80
2023-02-05T22:51:45.432Z,99028.71
2023-02-05T22:54:15.450Z,99035.45
2023-02-05T22:56:44.742Z,99035.23
2023-02-05T22:59:13.646Z,99033.04
2023-02-05T23:01:41.901Z,99031.42
2023-02-05T23:04:10.740Z,99031.73
2023-02-05T23:06:42.424Z,99025.14
2023-02-05T23:09:14.918Z,99027.08
2023-02-05T23:11:44.658Z,99037.90
2023-02-05T23:14:15.491Z,99038.81
2023-02-05T23:16:46.021Z,99037.30
2023-02-05T23:19:18.773Z,99035.31
2023-02-05T23:21:48.285Z,99040.21
2023-02-05T23:24:17.969Z,99048.16
2023-02-05T23:26:50.916Z,99055.52
2023-02-05T23:29:19.732Z,99049.71
2023-02-05T23:31:48.382Z,99039.38
2023-02-05T23:34:16.660Z,99036.36
2023-02-05T23:36:44.807Z,99035.38
2023-02-05T23:39:12.995Z,99034.89
2023-02-05T23:41:41.484Z,99037.30
2023-02-05T23:44:12.893Z,99037.35
2023-02-05T23:46:42.786Z,99032.23
2023-02-05T23:49:12.245Z,99030.29
2023-02-05T23:51:41.354Z,99034.52
2023-02-05T23:54:11.548Z,99039.41
2023-02-05T23:56:41.082Z,99045.66
2023-02-05T23:59:11.138Z,99048.96
